RPi & Temperatures at JO21ut

Last graph updates: Saturday 21 September 2019 19:02 CEST

Sunrise: 07:20 & Sunset: 19:40 The Sun is currently visible at an elevation of 0.61 degrees and azimut of 271 and 150170367 Km from the Earth
Moonrise: 23:17 & Moonset: 14:56 Last Quarter Moon The Moon is 380224 Km from the Earth
Find here more details on MARS.

19:32:24 up 6 days, 22:19, 0 users, load average: 0.90, 1.03, 1.02
Current CPU frequency is: 1000 Mhz
Current GPU temperature: 33.628°C
Current inside temperature is 21.42°C with a humidity of 51.59%
Second inside temperature is 21.6°C with a pressure of 1010.30 Hpa (29.6 inHg) and an uncorrected altitude of 24.84 m
ds18b20 now showing 22.3°C

All the sensors I use, DHT22 | BMP085 | MPU6050 | BH1750FVI | MMA7455 | HMC5883L | MPL3115A2 | DS1307 | HTU21 | AM2321 | DS3231 | INA219 | LM75A , and it's current readout can be viewed here please be patient as it needs to read all sensors data. The page loads after about 10 seconds. In our forum more details can be found such as the used software/sources. Feel free to add yours also..


Pressure BMP085
Pressure BMP085
Pressure BMP085
Pressure BMP085
PI CPU Temp
Inet Volkel temp
Inside temp BMP085
Humidity BMP085
PI CPU Temp
Inet Volkel temp
Inside temp BMP085
Humidity BMP085
PI CPU Temp
Inet Volkel temp
Inside temp BMP085
Humidity BMP085
PI CPU Temp
Inet Volkel temp
Inside temp BMP085
Humidity BMP085
PI CPU Temp
Inet Volkel temp
Inside temp BMP085
Humidity BMP085
Inside light BH1750FV
Inside light BH1750FV
Inside light BH1750FV
Inside light BH1750FV
Inside light BH1750FV
Inside light BH1750FV
Sunlight hours
 

Sun & Moon height


Wijchen weather

Weer Widget
ScreenSaver yr.no

Sun Moon Earth


EHEH 211725Z AUTO 10006KT 060V140 9999 NCD 23/04 Q1013 BLU 11007KT CAVOK EHEH 211725Z AUTO 10006KT 060V140 9999 NCD 23/04 Q1013 BLU 11007KT CAVOK EHEH 211725Z AUTO 10006KT 060V140 9999 NCD 23/04 Q1013 BLU 11007KT CAVOK

Weather data from Volkel [NL] EHVK


7 minutes ago, at 17:25 UTC, the wind was blowing at a speed of 3.6 meters per second (8.1 miles per hour/7 knots) from East/Southeast (110) in Volkel [EHVK], Netherlands. The temperature was 23 °C (73 °F) with a dewpoint of 4 °C (39 °F), and the pressure was 1,013 hPa (29.91 inHg). The relative humidity was 28.9%. There are no clouds below 1,524 meter (5,000 feet). The visibility was >10 kilometers (>6.2 miles).




View code:

Contact me  |  My Raspberry PI forum